createdAt,value
2019-04-20T00:01:37.121Z,43.43
2019-04-20T00:04:17.036Z,53.47
2019-04-20T00:06:49.800Z,48.40
2019-04-20T00:09:24.652Z,55.43
2019-04-20T00:12:04.083Z,57.67
2019-04-20T00:14:36.254Z,66.70
2019-04-20T00:17:09.507Z,39.80
2019-04-20T00:19:47.773Z,53.00
2019-04-20T00:22:23.354Z,54.83
2019-04-20T00:24:58.070Z,53.87
2019-04-20T00:27:49.767Z,44.38
2019-04-20T00:30:25.091Z,55.53
2019-04-20T00:32:54.676Z,44.37
2019-04-20T00:35:18.832Z,52.27
2019-04-20T00:37:53.363Z,39.60
2019-04-20T00:40:28.548Z,66.20
2019-04-20T00:43:04.585Z,42.30
2019-04-20T00:45:46.769Z,33.87
2019-04-20T00:48:31.541Z,45.30
2019-04-20T00:51:21.476Z,38.65
2019-04-20T00:53:40.894Z,38.90
2019-04-20T00:56:13.960Z,48.97
2019-04-20T00:59:06.073Z,62.60
2019-04-20T01:01:47.569Z,57.90
2019-04-20T01:04:23.926Z,59.67
2019-04-20T01:06:57.564Z,40.03
2019-04-20T01:09:26.398Z,46.83
2019-04-20T01:12:04.047Z,55.60
2019-04-20T01:14:50.183Z,42.88
2019-04-20T01:17:24.931Z,42.23
2019-04-20T01:20:02.800Z,46.03
2019-04-20T01:22:50.717Z,44.97
2019-04-20T01:25:27.209Z,43.33
2019-04-20T01:28:19.304Z,42.08
2019-04-20T01:30:37.548Z,45.90
2019-04-20T01:33:21.214Z,47.83
2019-04-20T01:35:57.121Z,39.90
2019-04-20T01:38:35.548Z,48.07
2019-04-20T01:40:59.113Z,50.57
2019-04-20T01:43:35.229Z,50.30
2019-04-20T01:46:15.024Z,40.20
2019-04-20T01:48:48.100Z,43.93
2019-04-20T01:51:28.577Z,36.00
2019-04-20T01:54:16.306Z,28.10
2019-04-20T01:56:47.271Z,28.80
2019-04-20T01:59:24.155Z,39.07
2019-04-20T02:01:55.649Z,42.93
2019-04-20T02:04:31.005Z,24.77
2019-04-20T02:07:06.400Z,40.38
2019-04-20T02:09:48.508Z,36.23
2019-04-20T02:12:23.660Z,44.77
2019-04-20T02:14:59.022Z,60.17
2019-04-20T02:17:37.371Z,31.93
2019-04-20T02:20:22.799Z,42.47
2019-04-20T02:22:55.606Z,40.33
2019-04-20T02:25:16.409Z,43.10
2019-04-20T02:27:56.932Z,35.83
2019-04-20T02:31:05.777Z,34.83
2019-04-20T02:33:47.242Z,25.17
2019-04-20T02:36:21.128Z,46.10
2019-04-20T02:39:06.650Z,44.67
2019-04-20T02:41:17.862Z,47.35
2019-04-20T02:44:06.040Z,35.20
2019-04-20T02:46:31.601Z,30.77
2019-04-20T02:49:19.837Z,50.93
2019-04-20T02:51:47.296Z,49.00
2019-04-20T02:59:53.561Z,43.23
2019-04-20T03:01:55.281Z,35.43
2019-04-20T03:04:26.717Z,33.43
2019-04-20T03:07:07.901Z,37.03
2019-04-20T03:09:55.469Z,36.30
2019-04-20T03:12:33.376Z,32.83
2019-04-20T03:14:59.714Z,38.70
2019-04-20T03:17:46.035Z,34.33
2019-04-20T03:20:22.110Z,31.33
2019-04-20T03:23:17.668Z,34.77
2019-04-20T03:25:36.059Z,41.23
2019-04-20T03:28:21.936Z,38.17
2019-04-20T03:33:51.463Z,33.13
2019-04-20T03:36:18.317Z,29.27
2019-04-20T03:38:52.216Z,45.03
2019-04-20T03:41:18.506Z,35.52
2019-04-20T03:43:41.783Z,38.93
2019-04-20T03:46:30.073Z,38.97
2019-04-20T03:49:46.979Z,35.43
2019-04-20T03:52:13.543Z,48.73
2019-04-20T03:54:43.812Z,44.97
2019-04-20T03:57:34.441Z,35.10
2019-04-20T04:00:06.986Z,38.87
2019-04-20T04:05:24.989Z,35.53
2019-04-20T04:07:46.741Z,50.83
2019-04-20T04:10:31.622Z,33.53
2019-04-20T04:13:16.812Z,45.17
2019-04-20T04:16:02.335Z,72.30
2019-04-20T04:18:42.030Z,35.43
2019-04-20T04:21:20.364Z,53.50
2019-04-20T04:24:07.432Z,40.37
2019-04-20T04:26:42.755Z,44.17
2019-04-20T04:29:28.758Z,41.77
2019-04-20T04:32:10.482Z,41.20
2019-04-20T04:34:39.129Z,40.15
2019-04-20T04:37:24.300Z,37.17
2019-04-20T04:40:10.561Z,38.47
2019-04-20T04:42:45.531Z,38.13
2019-04-20T04:45:01.670Z,37.97
2019-04-20T04:47:34.550Z,40.00
2019-04-20T04:50:24.834Z,56.73
2019-04-20T04:53:09.358Z,31.90
2019-04-20T04:55:47.740Z,37.95
2019-04-20T04:58:15.375Z,40.92
2019-04-20T05:01:01.288Z,56.77
2019-04-20T05:03:58.271Z,42.77
2019-04-20T05:06:28.074Z,38.90
2019-04-20T05:08:56.770Z,50.57
2019-04-20T05:11:40.640Z,35.73
2019-04-20T05:14:23.536Z,38.57
2019-04-20T05:17:25.506Z,40.75
2019-04-20T05:22:45.750Z,44.67
2019-04-20T05:25:26.673Z,41.93
2019-04-20T05:28:04.148Z,46.40
2019-04-20T05:30:22.394Z,48.50
2019-04-20T05:33:07.791Z,47.30
2019-04-20T05:35:55.305Z,40.10
2019-04-20T05:38:42.055Z,33.27
2019-04-20T05:41:11.664Z,46.67
2019-04-20T05:43:47.005Z,42.62
2019-04-20T05:46:26.706Z,44.17
2019-04-20T05:49:13.500Z,49.07
2019-04-20T05:51:44.329Z,41.30
2019-04-20T05:54:29.720Z,51.77
2019-04-20T05:57:17.446Z,47.50
2019-04-20T05:59:53.159Z,39.80
2019-04-20T06:02:23.247Z,51.50
2019-04-20T06:05:06.860Z,41.08
2019-04-20T06:07:35.736Z,49.57
2019-04-20T06:10:16.787Z,50.70
2019-04-20T06:12:45.916Z,54.70
2019-04-20T06:15:15.595Z,42.10
2019-04-20T06:18:01.016Z,45.90
2019-04-20T06:20:37.949Z,49.47
2019-04-20T06:23:19.474Z,61.07
2019-04-20T06:28:22.027Z,43.37
2019-04-20T06:30:52.635Z,49.20
2019-04-20T06:34:30.269Z,43.92
2019-04-20T06:36:56.048Z,42.27
2019-04-20T06:42:15.361Z,36.67
2019-04-20T06:44:41.386Z,34.38
2019-04-20T06:50:11.115Z,35.93
2019-04-20T06:52:36.859Z,44.20
2019-04-20T06:55:14.160Z,39.73
2019-04-20T06:57:54.814Z,31.40
2019-04-20T07:00:35.100Z,53.43
2019-04-20T07:03:18.472Z,45.07
2019-04-20T07:05:48.962Z,38.63
2019-04-20T07:08:42.316Z,35.13
2019-04-20T07:11:05.879Z,43.20
2019-04-20T07:13:34.124Z,43.53
2019-04-20T07:16:18.549Z,45.47
2019-04-20T07:18:56.386Z,46.57
2019-04-20T07:21:46.386Z,44.67
2019-04-20T07:24:14.221Z,32.80
2019-04-20T07:26:44.673Z,39.70
2019-04-20T07:29:21.013Z,106.47
2019-04-20T07:31:49.935Z,47.37
2019-04-20T07:34:29.819Z,42.90
2019-04-20T07:37:28.141Z,41.03
2019-04-20T07:39:40.186Z,48.07
2019-04-20T07:42:23.001Z,41.53
2019-04-20T07:45:01.820Z,47.30
2019-04-20T07:47:40.481Z,36.50
2019-04-20T07:50:05.128Z,46.20
2019-04-20T07:52:42.237Z,45.73
2019-04-20T07:57:52.783Z,39.47
2019-04-20T08:00:41.983Z,45.95
2019-04-20T08:03:18.359Z,44.90
2019-04-20T08:05:36.955Z,43.50
2019-04-20T08:08:18.002Z,42.80
2019-04-20T08:10:54.426Z,43.53
2019-04-20T08:13:39.117Z,38.77
2019-04-20T08:16:21.616Z,50.87
2019-04-20T08:18:51.404Z,41.87
2019-04-20T08:21:22.804Z,47.37
2019-04-20T08:23:55.941Z,53.93
2019-04-20T08:26:20.236Z,40.97
2019-04-20T08:28:55.236Z,48.95
2019-04-20T08:31:39.011Z,36.20
2019-04-20T08:34:27.909Z,43.37
2019-04-20T08:36:56.707Z,43.50
2019-04-20T08:39:45.041Z,49.63
2019-04-20T08:42:07.468Z,36.57
2019-04-20T08:44:55.144Z,40.95
2019-04-20T08:47:48.665Z,40.87
2019-04-20T08:50:21.353Z,45.30
2019-04-20T08:55:26.632Z,45.27
2019-04-20T08:57:44.424Z,58.90
2019-04-20T09:00:28.779Z,46.27
2019-04-20T09:03:02.321Z,60.40
2019-04-20T09:05:43.950Z,90.33
2019-04-20T09:08:13.486Z,375.30
2019-04-20T09:10:59.815Z,208.70
2019-04-20T09:13:28.338Z,38.20
2019-04-20T09:15:53.455Z,45.70
2019-04-20T09:18:36.678Z,44.40
2019-04-20T09:21:09.776Z,53.53
2019-04-20T09:23:52.221Z,57.83
2019-04-20T09:26:32.777Z,53.67
2019-04-20T09:29:07.255Z,45.90
2019-04-20T09:31:39.530Z,46.83
2019-04-20T09:36:49.872Z,42.07
2019-04-20T09:39:27.154Z,50.53
2019-04-20T09:42:00.701Z,45.57
2019-04-20T09:44:37.506Z,45.87
2019-04-20T09:47:10.413Z,41.60
2019-04-20T09:50:00.804Z,53.65
2019-04-20T09:52:37.770Z,49.47
2019-04-20T09:55:14.907Z,43.50
2019-04-20T09:58:01.258Z,71.62
2019-04-20T10:00:43.748Z,335.90
2019-04-20T10:03:00.307Z,278.27
2019-04-20T10:05:35.686Z,89.65
2019-04-20T10:08:11.796Z,52.60
2019-04-20T10:10:47.128Z,43.90
2019-04-20T10:13:27.567Z,95.00
2019-04-20T10:16:03.844Z,49.17
2019-04-20T10:18:44.193Z,49.23
2019-04-20T10:21:23.593Z,52.53
2019-04-20T10:24:08.569Z,43.53
2019-04-20T10:26:46.630Z,45.80
2019-04-20T10:29:21.620Z,48.00
2019-04-20T10:31:59.264Z,59.77
2019-04-20T10:34:32.759Z,49.13
2019-04-20T10:37:07.196Z,46.10
2019-04-20T10:39:42.538Z,53.20
2019-04-20T10:42:16.535Z,45.00
2019-04-20T10:44:53.215Z,51.10
2019-04-20T10:47:25.459Z,57.37
2019-04-20T10:55:43.216Z,63.70
2019-04-20T10:58:17.711Z,55.43
2019-04-20T11:00:55.617Z,61.70
2019-04-20T11:03:30.670Z,60.80
2019-04-20T11:06:06.822Z,57.77
2019-04-20T11:08:42.426Z,62.93
2019-04-20T11:11:22.594Z,53.73
2019-04-20T11:13:53.092Z,69.03
2019-04-20T11:16:28.520Z,59.60
2019-04-20T11:19:03.250Z,51.53
2019-04-20T11:21:40.708Z,60.77
2019-04-20T11:24:14.322Z,61.30
2019-04-20T11:26:48.057Z,59.58
2019-04-20T11:29:22.275Z,66.90
2019-04-20T11:31:56.512Z,62.47
2019-04-20T11:34:33.976Z,63.83
2019-04-20T11:37:06.876Z,69.97
2019-04-20T11:39:41.072Z,68.47
2019-04-20T11:42:15.025Z,77.60
2019-04-20T11:44:49.268Z,74.40
2019-04-20T11:47:24.971Z,65.40
2019-04-20T11:50:19.830Z,69.03
2019-04-20T11:52:55.301Z,64.67
2019-04-20T11:55:30.688Z,60.17
2019-04-20T11:58:06.325Z,71.40
2019-04-20T12:00:57.328Z,75.90
2019-04-20T12:03:31.504Z,79.30
2019-04-20T12:06:03.173Z,80.43
2019-04-20T12:08:38.861Z,70.07
2019-04-20T12:11:24.238Z,85.07
2019-04-20T12:13:48.864Z,75.62
2019-04-20T12:16:25.601Z,71.33
2019-04-20T12:19:00.205Z,76.87
2019-04-20T12:21:34.802Z,74.20
2019-04-20T12:24:09.984Z,78.50
2019-04-20T12:26:46.877Z,65.33
2019-04-20T12:29:24.166Z,63.47
2019-04-20T12:32:03.495Z,81.42
2019-04-20T12:34:35.055Z,67.83
2019-04-20T12:37:13.310Z,70.77
2019-04-20T12:39:53.212Z,65.97
2019-04-20T12:42:28.825Z,72.50
2019-04-20T12:45:03.915Z,70.83
2019-04-20T12:47:39.522Z,66.47
2019-04-20T12:50:15.748Z,75.27
2019-04-20T12:52:54.724Z,72.37
2019-04-20T12:55:30.797Z,69.37
2019-04-20T12:58:06.320Z,83.13
2019-04-20T13:00:54.359Z,76.00
2019-04-20T13:03:29.763Z,65.87
2019-04-20T13:06:05.743Z,75.77
2019-04-20T13:08:45.127Z,66.10
2019-04-20T13:11:18.660Z,73.17
2019-04-20T13:14:10.626Z,74.20
2019-04-20T13:16:47.488Z,73.57
2019-04-20T13:19:21.443Z,71.57
2019-04-20T13:21:56.887Z,67.73
2019-04-20T13:24:32.392Z,76.00
2019-04-20T13:27:07.056Z,75.93
2019-04-20T13:29:46.153Z,63.73
2019-04-20T13:32:21.059Z,78.57
2019-04-20T13:34:56.273Z,61.90
2019-04-20T13:37:35.494Z,73.87
2019-04-20T13:40:09.540Z,76.03
2019-04-20T13:42:45.576Z,68.70
2019-04-20T13:45:21.370Z,65.27
2019-04-20T13:47:58.990Z,73.70
2019-04-20T13:50:34.017Z,70.72
2019-04-20T13:53:11.324Z,65.57
2019-04-20T13:55:45.707Z,67.03
2019-04-20T13:58:20.140Z,67.73
2019-04-20T14:00:55.555Z,63.70
2019-04-20T14:03:30.223Z,60.35
2019-04-20T14:06:04.733Z,65.67
2019-04-20T14:08:41.244Z,70.67
2019-04-20T14:11:15.616Z,68.97
2019-04-20T14:13:56.731Z,67.00
2019-04-20T14:16:29.830Z,56.60
2019-04-20T14:19:05.083Z,77.47
2019-04-20T14:21:39.623Z,75.23
2019-04-20T14:24:17.087Z,64.20
2019-04-20T14:26:51.262Z,78.13
2019-04-20T14:29:25.257Z,69.20
2019-04-20T14:32:00.645Z,56.40
2019-04-20T14:34:35.110Z,75.23
2019-04-20T14:37:08.852Z,70.57
2019-04-20T14:39:42.661Z,67.37
2019-04-20T14:42:35.128Z,60.77
2019-04-20T14:45:04.747Z,72.53
2019-04-20T14:47:41.556Z,71.97
2019-04-20T14:50:18.403Z,76.77
2019-04-20T14:58:42.169Z,66.07
2019-04-20T15:01:20.810Z,81.37
2019-04-20T15:03:59.864Z,74.33
2019-04-20T15:06:35.828Z,88.43
2019-04-20T15:09:10.728Z,76.55
2019-04-20T15:11:46.522Z,72.17
2019-04-20T15:14:20.799Z,87.53
2019-04-20T15:16:56.338Z,83.70
2019-04-20T15:19:31.691Z,79.17
2019-04-20T15:22:05.830Z,77.87
2019-04-20T15:24:45.272Z,81.77
2019-04-20T15:27:18.453Z,85.27
2019-04-20T15:29:52.114Z,82.83
2019-04-20T15:32:27.080Z,83.95
2019-04-20T15:35:01.020Z,80.85
2019-04-20T15:37:35.561Z,87.53
2019-04-20T15:40:11.272Z,80.53
2019-04-20T15:42:55.049Z,83.15
2019-04-20T15:45:21.239Z,79.60
2019-04-20T15:47:56.342Z,88.27
2019-04-20T15:50:30.199Z,82.17
2019-04-20T15:53:08.074Z,91.67
2019-04-20T15:55:44.888Z,95.43
2019-04-20T15:58:18.388Z,88.60
2019-04-20T16:00:52.804Z,90.23
2019-04-20T16:03:27.549Z,93.50
2019-04-20T16:06:03.217Z,82.82
2019-04-20T16:08:36.899Z,102.40
2019-04-20T16:11:12.885Z,93.90
2019-04-20T16:13:50.479Z,91.07
2019-04-20T16:16:23.651Z,87.80
2019-04-20T16:19:04.027Z,97.67
2019-04-20T16:21:39.668Z,106.67
2019-04-20T16:24:15.009Z,101.47
2019-04-20T16:26:53.676Z,99.57
2019-04-20T16:29:33.578Z,93.62
2019-04-20T16:32:09.079Z,91.87
2019-04-20T16:34:44.419Z,87.40
2019-04-20T16:37:28.523Z,95.73
2019-04-20T16:40:04.292Z,99.80
2019-04-20T16:42:39.213Z,100.00
2019-04-20T16:45:13.371Z,112.10
2019-04-20T16:47:48.103Z,98.77
2019-04-20T16:50:24.663Z,99.00
2019-04-20T16:52:59.113Z,111.05
2019-04-20T16:55:33.025Z,103.40
2019-04-20T16:58:08.026Z,98.47
2019-04-20T17:00:43.171Z,103.67
2019-04-20T17:03:17.318Z,101.75
2019-04-20T17:05:52.039Z,105.47
2019-04-20T17:08:26.902Z,108.93
2019-04-20T17:11:01.497Z,114.10
2019-04-20T17:13:43.416Z,101.20
2019-04-20T17:16:11.061Z,99.50
2019-04-20T17:18:49.782Z,105.70
2019-04-20T17:21:26.781Z,118.77
2019-04-20T17:23:59.383Z,116.33
2019-04-20T17:26:32.873Z,115.23
2019-04-20T17:29:08.141Z,110.08
2019-04-20T17:31:42.990Z,107.70
2019-04-20T17:34:36.141Z,101.77
2019-04-20T17:36:52.629Z,115.23
2019-04-20T17:39:35.691Z,106.93
2019-04-20T17:42:17.160Z,103.10
2019-04-20T17:44:49.862Z,103.77
2019-04-20T17:47:31.305Z,116.97
2019-04-20T17:50:05.290Z,110.63
2019-04-20T17:52:42.789Z,117.05
2019-04-20T17:54:57.758Z,109.30
2019-04-20T17:57:33.211Z,108.80
2019-04-20T18:00:13.372Z,104.25
2019-04-20T18:03:06.439Z,122.03
2019-04-20T18:05:39.515Z,104.90
2019-04-20T18:08:15.123Z,106.00
2019-04-20T18:10:41.836Z,102.50
2019-04-20T18:13:12.070Z,114.80
2019-04-20T18:15:52.683Z,110.37
2019-04-20T18:18:32.208Z,120.43
2019-04-20T18:20:50.542Z,113.40
2019-04-20T18:23:33.053Z,124.97
2019-04-20T18:26:24.201Z,123.70
2019-04-20T18:28:58.672Z,113.40
2019-04-20T18:31:11.439Z,117.47
2019-04-20T18:33:46.405Z,107.00
2019-04-20T18:36:28.445Z,112.17
2019-04-20T18:38:59.507Z,108.55
2019-04-20T18:41:38.415Z,116.12
2019-04-20T18:44:06.402Z,113.75
2019-04-20T18:47:06.381Z,108.03
2019-04-20T18:49:33.388Z,111.80
2019-04-20T18:51:51.579Z,116.00
2019-04-20T18:54:28.584Z,124.47
2019-04-20T18:57:01.555Z,124.10
2019-04-20T18:59:40.887Z,119.27
2019-04-20T19:02:15.025Z,108.97
2019-04-20T19:04:44.278Z,112.70
2019-04-20T19:07:19.634Z,115.60
2019-04-20T19:10:00.344Z,122.25
2019-04-20T19:12:34.460Z,116.23
2019-04-20T19:15:27.985Z,111.03
2019-04-20T19:17:49.320Z,132.70
2019-04-20T19:20:15.923Z,116.28
2019-04-20T19:22:52.330Z,100.10
2019-04-20T19:25:30.829Z,110.90
2019-04-20T19:28:02.896Z,122.02
2019-04-20T19:30:46.080Z,112.83
2019-04-20T19:33:27.674Z,122.35
2019-04-20T19:35:54.120Z,121.87
2019-04-20T19:38:24.523Z,118.63
2019-04-20T19:41:05.864Z,113.70
2019-04-20T19:43:41.638Z,128.27
2019-04-20T19:46:42.015Z,116.90
2019-04-20T19:48:53.535Z,131.43
2019-04-20T19:51:35.759Z,115.23
2019-04-20T19:54:13.165Z,115.03
2019-04-20T19:56:41.441Z,118.15
2019-04-20T19:59:13.648Z,115.97
2019-04-20T20:01:36.001Z,125.87
2019-04-20T20:04:10.141Z,119.97
2019-04-20T20:06:51.097Z,125.03
2019-04-20T20:09:22.214Z,117.07
2019-04-20T20:12:03.773Z,119.90
2019-04-20T20:14:36.795Z,118.10
2019-04-20T20:17:26.891Z,124.15
2019-04-20T20:20:06.819Z,122.67
2019-04-20T20:22:28.437Z,119.70
2019-04-20T20:24:52.861Z,127.07
2019-04-20T20:27:34.003Z,118.94
2019-04-20T20:30:11.946Z,119.87
2019-04-20T20:32:58.851Z,107.40
2019-04-20T20:35:20.221Z,108.13
2019-04-20T20:37:53.128Z,120.37
2019-04-20T20:40:29.948Z,119.40
2019-04-20T20:43:10.693Z,125.55
2019-04-20T20:45:43.284Z,119.43
2019-04-20T20:48:24.438Z,123.58
2019-04-20T20:51:03.809Z,107.87
2019-04-20T20:53:36.239Z,119.90
2019-04-20T20:56:06.336Z,113.93
2019-04-20T20:58:43.739Z,118.30
2019-04-20T21:01:14.135Z,121.40
2019-04-20T21:03:43.992Z,124.57
2019-04-20T21:06:18.850Z,119.53
2019-04-20T21:08:53.803Z,122.53
2019-04-20T21:11:30.523Z,118.17
2019-04-20T21:14:01.315Z,118.10
2019-04-20T21:16:40.225Z,115.90
2019-04-20T21:19:24.572Z,117.43
2019-04-20T21:21:50.361Z,123.23
2019-04-20T21:24:21.151Z,125.90
2019-04-20T21:26:53.899Z,127.80
2019-04-20T21:29:35.890Z,137.12
2019-04-20T21:32:08.642Z,113.70
2019-04-20T21:34:37.385Z,127.00
2019-04-20T21:37:15.245Z,131.00
2019-04-20T21:39:53.460Z,129.93
2019-04-20T21:42:25.177Z,112.87
2019-04-20T21:45:04.588Z,118.57
2019-04-20T21:47:36.517Z,128.97
2019-04-20T21:50:26.699Z,126.67
2019-04-20T21:52:58.522Z,121.00
2019-04-20T21:55:27.949Z,129.80
2019-04-20T21:58:08.616Z,119.03
2019-04-20T22:00:44.550Z,117.05
2019-04-20T22:03:18.414Z,127.63
2019-04-20T22:05:53.009Z,121.90
2019-04-20T22:08:26.600Z,116.20
2019-04-20T22:11:01.755Z,117.50
2019-04-20T22:13:38.829Z,117.73
2019-04-20T22:16:12.775Z,111.97
2019-04-20T22:18:50.982Z,99.87
2019-04-20T22:21:27.796Z,115.80
2019-04-20T22:24:09.440Z,109.17
2019-04-20T22:26:39.779Z,100.12
2019-04-20T22:29:05.940Z,89.13
2019-04-20T22:31:40.274Z,101.07
2019-04-20T22:34:20.504Z,86.67
2019-04-20T22:36:50.566Z,113.47
2019-04-20T22:39:33.635Z,128.27
2019-04-20T22:42:05.633Z,110.77
2019-04-20T22:44:36.093Z,117.73
2019-04-20T22:47:14.112Z,123.20
2019-04-20T22:50:00.201Z,129.13
2019-04-20T22:52:34.870Z,134.70
2019-04-20T22:55:21.004Z,132.80
2019-04-20T22:57:48.392Z,144.53
2019-04-20T23:00:15.599Z,153.23
2019-04-20T23:02:45.136Z,146.03
2019-04-20T23:05:20.500Z,165.50
2019-04-20T23:07:54.725Z,154.63
2019-04-20T23:10:34.776Z,173.33
2019-04-20T23:13:05.328Z,169.57
2019-04-20T23:15:43.303Z,146.83
2019-04-20T23:18:15.937Z,154.93
2019-04-20T23:20:56.610Z,167.87
2019-04-20T23:23:32.537Z,140.40
2019-04-20T23:26:19.324Z,162.65
2019-04-20T23:28:55.504Z,156.40
2019-04-20T23:31:30.773Z,180.83
2019-04-20T23:34:14.372Z,176.77
2019-04-20T23:36:50.205Z,150.40
2019-04-20T23:39:30.119Z,161.80
2019-04-20T23:42:08.427Z,145.27
2019-04-20T23:44:47.843Z,162.83
2019-04-20T23:47:19.844Z,153.37
2019-04-20T23:50:13.124Z,152.80
2019-04-20T23:52:53.324Z,174.27
2019-04-20T23:55:11.945Z,180.00
2019-04-20T23:57:50.587Z,158.35
